createdAt,value
2023-05-15T00:00:47.050Z,100767.63
2023-05-15T00:03:17.858Z,100741.84
2023-05-15T00:05:47.718Z,100759.91
2023-05-15T00:08:17.465Z,100735.84
2023-05-15T00:10:57.458Z,100762.47
2023-05-15T00:13:30.443Z,100735.78
2023-05-15T00:16:02.818Z,100753.81
2023-05-15T00:18:32.622Z,100721.19
2023-05-15T00:21:02.426Z,100731.47
2023-05-15T00:23:32.148Z,100752.03
2023-05-15T00:26:01.993Z,100729.63
2023-05-15T00:28:31.732Z,100728.69
2023-05-15T00:31:04.094Z,100757.13
2023-05-15T00:33:35.948Z,100755.31
2023-05-15T00:36:06.427Z,100759.59
2023-05-15T00:38:36.234Z,100754.41
2023-05-15T00:41:09.259Z,100747.50
2023-05-15T00:43:41.738Z,100743.00
2023-05-15T00:46:16.364Z,100747.31
2023-05-15T00:48:46.999Z,100753.28
2023-05-15T00:51:16.706Z,100735.28
2023-05-15T00:53:46.678Z,100742.19
2023-05-15T00:56:17.107Z,100726.81
2023-05-15T00:58:49.265Z,100724.22
2023-05-15T01:01:22.021Z,100739.72
2023-05-15T01:03:51.905Z,100737.06
2023-05-15T01:06:23.641Z,100725.81
2023-05-15T01:08:54.693Z,100736.19
2023-05-15T01:11:27.718Z,100738.72
2023-05-15T01:13:58.056Z,100736.94
2023-05-15T01:16:30.365Z,100737.75
2023-05-15T01:19:00.158Z,100742.66
2023-05-15T01:22:03.089Z,100733.22
2023-05-15T01:24:53.453Z,100742.69
2023-05-15T01:27:32.286Z,100728.91
2023-05-15T01:30:08.316Z,100738.28
2023-05-15T01:32:46.307Z,100709.16
2023-05-15T01:35:21.955Z,100727.31
2023-05-15T01:37:58.816Z,100722.16
2023-05-15T01:40:30.864Z,100706.66
2023-05-15T01:43:10.769Z,100711.00
2023-05-15T01:45:42.244Z,100700.63
2023-05-15T01:48:15.605Z,100722.13
2023-05-15T01:50:48.494Z,100716.88
2023-05-15T01:53:19.878Z,100702.19
2023-05-15T01:55:51.560Z,100704.06
2023-05-15T01:58:24.374Z,100709.16
2023-05-15T02:00:55.058Z,100693.59
2023-05-15T02:03:24.984Z,100707.28
2023-05-15T02:05:56.763Z,100700.41
2023-05-15T02:08:28.964Z,100698.59
2023-05-15T02:11:00.889Z,100706.38
2023-05-15T02:13:34.044Z,100693.47
2023-05-15T02:16:03.932Z,100691.75
2023-05-15T02:18:33.791Z,100701.91
2023-05-15T02:21:05.176Z,100697.50
2023-05-15T02:23:35.136Z,100700.16
2023-05-15T02:26:16.349Z,100695.13
2023-05-15T02:28:57.696Z,100690.72
2023-05-15T02:31:35.159Z,100683.00
2023-05-15T02:34:15.738Z,100682.06
2023-05-15T02:36:50.385Z,100676.94
2023-05-15T02:39:23.617Z,100674.31
2023-05-15T02:41:55.838Z,100686.34
2023-05-15T02:44:29.895Z,100671.75
2023-05-15T02:47:00.653Z,100661.38
2023-05-15T02:49:30.383Z,100684.53
2023-05-15T02:52:00.146Z,100685.34
2023-05-15T02:54:29.969Z,100673.34
2023-05-15T02:56:59.812Z,100654.44
2023-05-15T02:59:32.228Z,100671.63
2023-05-15T03:02:03.659Z,100648.34
2023-05-15T03:04:33.537Z,100651.66
2023-05-15T03:07:03.351Z,100674.13
2023-05-15T03:09:33.076Z,100675.72
2023-05-15T03:12:02.858Z,100665.38
2023-05-15T03:14:35.222Z,100674.81
2023-05-15T03:17:05.154Z,100653.19
2023-05-15T03:19:34.975Z,100665.13
2023-05-15T03:22:04.717Z,100668.50
2023-05-15T03:24:34.460Z,100671.84
2023-05-15T03:27:05.018Z,100666.81
2023-05-15T03:29:37.454Z,100668.59
2023-05-15T03:32:07.749Z,100641.03
2023-05-15T03:34:38.756Z,100667.66
2023-05-15T03:37:10.177Z,100655.63
2023-05-15T03:39:39.967Z,100648.69
2023-05-15T03:42:10.359Z,100669.47
2023-05-15T03:44:42.773Z,100663.59
2023-05-15T03:47:12.518Z,100656.75
2023-05-15T03:49:42.295Z,100643.06
2023-05-15T03:52:12.477Z,100656.75
2023-05-15T03:54:42.633Z,100644.56
2023-05-15T03:57:12.450Z,100647.06
2023-05-15T03:59:44.745Z,100650.47
2023-05-15T04:02:14.510Z,100659.81
2023-05-15T04:04:44.770Z,100662.47
2023-05-15T04:07:14.586Z,100620.41
2023-05-15T04:09:44.307Z,100659.84
2023-05-15T04:12:14.031Z,100667.59
2023-05-15T04:14:46.362Z,100653.88
2023-05-15T04:17:16.106Z,100670.22
2023-05-15T04:19:46.104Z,100643.69
2023-05-15T04:22:15.836Z,100670.28
2023-05-15T04:24:45.766Z,100648.75
2023-05-15T04:27:15.473Z,100649.69
2023-05-15T04:29:48.067Z,100646.38
2023-05-15T04:32:17.896Z,100667.78
2023-05-15T04:34:47.740Z,100655.06
2023-05-15T04:37:18.009Z,100661.94
2023-05-15T04:39:47.840Z,100663.81
2023-05-15T04:42:17.785Z,100629.56
2023-05-15T04:44:50.164Z,100643.50
2023-05-15T04:47:19.942Z,100653.03
2023-05-15T04:49:50.339Z,100651.34
2023-05-15T04:52:20.171Z,100636.53
2023-05-15T04:54:51.610Z,100636.34
2023-05-15T04:57:21.679Z,100657.75
2023-05-15T04:59:54.065Z,100658.84
2023-05-15T05:02:24.547Z,100666.69
2023-05-15T05:04:54.319Z,100629.88
2023-05-15T05:07:24.040Z,100644.53
2023-05-15T05:09:53.724Z,100668.66
2023-05-15T05:12:23.659Z,100623.00
2023-05-15T05:14:56.910Z,100649.72
2023-05-15T05:17:26.902Z,100634.44
2023-05-15T05:19:56.667Z,100648.38
2023-05-15T05:22:26.638Z,100653.63
2023-05-15T05:24:56.443Z,100652.00
2023-05-15T05:27:27.013Z,100655.47
2023-05-15T05:29:59.379Z,100647.09
2023-05-15T05:32:29.168Z,100649.69
2023-05-15T05:34:58.920Z,100649.75
2023-05-15T05:37:28.812Z,100660.13
2023-05-15T05:39:58.522Z,100535.00
2023-05-15T05:42:28.356Z,100656.97
2023-05-15T05:45:00.950Z,100605.50
2023-05-15T05:47:30.767Z,100660.50
2023-05-15T05:50:00.557Z,100636.44
2023-05-15T05:52:31.117Z,100667.47
2023-05-15T05:55:00.868Z,100633.25
2023-05-15T05:57:31.186Z,100658.19
2023-05-15T06:00:04.967Z,100659.78
2023-05-15T06:02:39.276Z,100680.38
2023-05-15T06:05:10.469Z,100668.47
2023-05-15T06:07:40.390Z,100655.66
2023-05-15T06:10:12.113Z,100653.22
2023-05-15T06:12:41.859Z,100659.34
2023-05-15T06:15:14.858Z,100650.88
2023-05-15T06:17:44.759Z,100663.75
2023-05-15T06:20:15.039Z,100644.91
2023-05-15T06:22:44.904Z,100642.31
2023-05-15T06:25:14.902Z,100655.09
2023-05-15T06:27:45.283Z,100643.03
2023-05-15T06:30:18.536Z,100660.06
2023-05-15T06:32:48.850Z,100632.56
2023-05-15T06:35:19.173Z,100667.69
2023-05-15T06:37:50.558Z,100643.66
2023-05-15T06:40:20.462Z,100652.13
2023-05-15T06:42:50.221Z,100643.56
2023-05-15T06:45:24.481Z,100643.56
2023-05-15T06:47:54.453Z,100638.47
2023-05-15T06:50:24.562Z,100659.75
2023-05-15T06:52:54.888Z,100657.13
2023-05-15T06:55:24.831Z,100645.09
2023-05-15T06:57:54.692Z,100662.16
2023-05-15T07:00:27.038Z,100651.78
2023-05-15T07:02:57.501Z,100654.22
2023-05-15T07:05:27.518Z,100615.66
2023-05-15T07:07:57.364Z,100636.16
2023-05-15T07:10:27.293Z,100659.91
2023-05-15T07:12:57.431Z,100653.75
2023-05-15T07:15:29.769Z,100621.09
2023-05-15T07:17:59.572Z,100620.13
2023-05-15T07:20:31.722Z,100651.50
2023-05-15T07:23:03.134Z,100635.41
2023-05-15T07:25:32.893Z,100655.09
2023-05-15T07:28:02.661Z,100649.66
2023-05-15T07:30:35.024Z,100644.50
2023-05-15T07:33:05.121Z,100640.19
2023-05-15T07:35:34.900Z,100638.28
2023-05-15T07:38:04.861Z,100629.84
2023-05-15T07:40:34.714Z,100631.44
2023-05-15T07:43:05.772Z,100621.31
2023-05-15T07:45:38.206Z,100632.50
2023-05-15T07:48:17.197Z,100634.97
2023-05-15T07:50:49.005Z,100632.22
2023-05-15T07:53:19.910Z,100635.28
2023-05-15T07:55:49.745Z,100630.72
2023-05-15T07:58:19.759Z,100636.72
2023-05-15T08:00:52.133Z,100621.06
2023-05-15T08:03:22.054Z,100617.19
2023-05-15T08:05:52.007Z,100626.13
2023-05-15T08:08:21.791Z,100613.53
2023-05-15T08:10:51.677Z,100580.50
2023-05-15T08:13:21.404Z,100625.19
2023-05-15T08:15:53.788Z,100618.31
2023-05-15T08:18:23.667Z,100609.44
2023-05-15T08:20:53.400Z,100616.59
2023-05-15T08:23:23.114Z,100608.13
2023-05-15T08:25:52.839Z,100593.59
2023-05-15T08:28:22.608Z,100579.94
2023-05-15T08:30:54.978Z,100602.66
2023-05-15T08:33:24.751Z,100595.50
2023-05-15T08:35:54.684Z,100612.34
2023-05-15T08:38:24.486Z,100607.88
2023-05-15T08:40:57.319Z,100607.47
2023-05-15T08:43:29.838Z,100590.13
2023-05-15T08:46:03.209Z,100601.59
2023-05-15T08:48:33.871Z,100583.03
2023-05-15T08:51:04.003Z,100565.97
2023-05-15T08:53:33.874Z,100589.59
2023-05-15T08:56:03.615Z,100595.09
2023-05-15T08:58:35.086Z,100577.53
2023-05-15T09:01:08.444Z,100565.63
2023-05-15T09:03:38.303Z,100535.22
2023-05-15T09:06:09.235Z,100527.25
2023-05-15T09:08:40.198Z,100570.59
2023-05-15T09:11:10.781Z,100588.19
2023-05-15T09:13:40.583Z,100571.88
2023-05-15T09:16:13.069Z,100593.78
2023-05-15T09:18:44.364Z,100586.47
2023-05-15T09:21:27.366Z,100561.00
2023-05-15T09:23:58.971Z,100577.63
2023-05-15T09:26:28.748Z,100580.63
2023-05-15T09:29:05.190Z,100584.00
2023-05-15T09:31:38.080Z,100578.91
2023-05-15T09:34:09.771Z,100587.44
2023-05-15T09:36:45.730Z,100590.78
2023-05-15T09:39:16.805Z,100579.69
2023-05-15T09:41:47.292Z,100565.81
2023-05-15T09:44:28.049Z,100583.16
2023-05-15T09:47:00.717Z,100550.72
2023-05-15T09:49:33.161Z,100580.59
2023-05-15T09:52:03.628Z,100580.09
2023-05-15T09:54:34.527Z,100582.94
2023-05-15T09:57:11.513Z,100579.47
2023-05-15T09:59:46.558Z,100563.19
2023-05-15T10:02:28.282Z,100567.97
2023-05-15T10:04:59.271Z,100578.25
2023-05-15T10:07:32.395Z,100559.91
2023-05-15T10:10:02.801Z,100575.38
2023-05-15T10:12:34.232Z,100565.59
2023-05-15T10:15:05.825Z,100575.75
2023-05-15T10:17:40.024Z,100569.56
2023-05-15T10:20:11.807Z,100567.09
2023-05-15T10:22:44.533Z,100571.91
2023-05-15T10:25:20.230Z,100562.00
2023-05-15T10:27:52.885Z,100549.66
2023-05-15T10:30:23.040Z,100570.88
2023-05-15T10:32:55.659Z,100540.84
2023-05-15T10:35:26.115Z,100552.84
2023-05-15T10:37:56.650Z,100552.59
2023-05-15T10:40:27.217Z,100553.25
2023-05-15T10:42:58.186Z,100546.91
2023-05-15T10:45:28.671Z,100521.16
2023-05-15T10:48:02.322Z,100551.91
2023-05-15T10:50:32.150Z,100533.94
2023-05-15T10:53:03.338Z,100539.97
2023-05-15T10:55:33.989Z,100531.41
2023-05-15T10:58:03.748Z,100540.75
2023-05-15T11:00:34.131Z,100521.19
2023-05-15T11:03:08.170Z,100542.59
2023-05-15T11:06:07.803Z,100527.41
2023-05-15T11:08:37.846Z,100521.31
2023-05-15T11:11:07.777Z,100540.88
2023-05-15T11:14:15.151Z,100531.63
2023-05-15T11:17:01.578Z,100524.41
2023-05-15T11:19:55.830Z,100518.50
2023-05-15T11:22:30.095Z,100513.00
2023-05-15T11:25:03.411Z,100516.28
2023-05-15T11:27:35.541Z,100505.97
2023-05-15T11:30:18.233Z,100508.16
2023-05-15T11:32:52.272Z,100497.28
2023-05-15T11:35:26.362Z,100496.16
2023-05-15T11:37:57.478Z,100492.75
2023-05-15T11:40:29.343Z,100506.66
2023-05-15T11:43:07.240Z,100497.41
2023-05-15T11:45:38.613Z,100478.63
2023-05-15T11:48:15.029Z,100480.53
2023-05-15T11:50:48.401Z,100498.91
2023-05-15T11:53:19.781Z,100491.56
2023-05-15T11:55:49.598Z,100495.47
2023-05-15T11:58:20.708Z,100485.31
2023-05-15T12:00:51.777Z,100493.34
2023-05-15T12:03:36.385Z,100486.22
2023-05-15T12:06:09.113Z,100433.19
2023-05-15T12:08:40.210Z,100481.47
2023-05-15T12:11:09.948Z,100492.94
2023-05-15T12:13:39.706Z,100488.34
2023-05-15T12:16:09.856Z,100491.97
2023-05-15T12:18:39.654Z,100473.00
2023-05-15T12:21:12.745Z,100493.25
2023-05-15T12:23:48.735Z,100460.41
2023-05-15T12:26:27.471Z,100479.50
2023-05-15T12:28:58.236Z,100477.47
2023-05-15T12:31:28.199Z,100483.28
2023-05-15T12:33:58.898Z,100487.22
2023-05-15T12:36:32.908Z,100486.81
2023-05-15T12:39:09.256Z,100485.00
2023-05-15T12:41:41.042Z,100500.94
2023-05-15T12:44:19.043Z,100493.56
2023-05-15T12:46:49.049Z,100485.88
2023-05-15T12:49:24.190Z,100494.56
2023-05-15T12:51:56.480Z,100483.44
2023-05-15T12:54:27.120Z,100496.59
2023-05-15T12:56:57.612Z,100487.19
2023-05-15T12:59:27.930Z,100484.22
2023-05-15T13:01:57.869Z,100479.13
2023-05-15T13:04:27.703Z,100480.84
2023-05-15T13:07:00.211Z,100481.69
2023-05-15T13:09:29.994Z,100477.97
2023-05-15T13:12:00.113Z,100466.63
2023-05-15T13:14:30.974Z,100474.75
2023-05-15T13:17:03.483Z,100457.28
2023-05-15T13:19:33.576Z,100467.06
2023-05-15T13:22:06.001Z,100459.50
2023-05-15T13:24:35.733Z,100463.97
2023-05-15T13:27:05.504Z,100464.25
2023-05-15T13:29:35.278Z,100451.91
2023-05-15T13:32:05.007Z,100449.16
2023-05-15T13:34:35.333Z,100465.59
2023-05-15T13:37:07.925Z,100467.03
2023-05-15T13:39:37.668Z,100452.28
2023-05-15T13:42:07.655Z,100467.78
2023-05-15T13:44:38.181Z,100463.00
2023-05-15T13:47:10.774Z,100438.75
2023-05-15T13:49:40.673Z,100450.47
2023-05-15T13:52:12.974Z,100448.72
2023-05-15T13:54:42.750Z,100404.69
2023-05-15T13:57:12.512Z,100439.31
2023-05-15T13:59:42.301Z,100454.38
2023-05-15T14:02:12.036Z,100455.75
2023-05-15T14:04:41.770Z,100441.84
2023-05-15T14:07:14.203Z,100462.31
2023-05-15T14:09:43.975Z,100457.03
2023-05-15T14:12:14.144Z,100457.50
2023-05-15T14:14:43.933Z,100456.44
2023-05-15T14:17:13.661Z,100454.56
2023-05-15T14:19:43.602Z,100425.91
2023-05-15T14:22:16.012Z,100451.06
2023-05-15T14:24:45.789Z,100457.25
2023-05-15T14:27:15.533Z,100431.50
2023-05-15T14:29:45.405Z,100461.75
2023-05-15T14:32:15.190Z,100453.31
2023-05-15T14:34:45.048Z,100397.94
2023-05-15T14:37:17.531Z,100457.19
2023-05-15T14:39:47.282Z,100463.00
2023-05-15T14:42:17.560Z,100442.16
2023-05-15T14:44:47.323Z,100455.84
2023-05-15T14:47:17.082Z,100460.91
2023-05-15T14:49:46.894Z,100444.19
2023-05-15T14:52:19.232Z,100471.00
2023-05-15T14:55:00.622Z,100473.66
2023-05-15T14:57:37.423Z,100461.41
2023-05-15T15:00:08.622Z,100469.41
2023-05-15T15:02:38.457Z,100465.41
2023-05-15T15:05:09.451Z,100422.50
2023-05-15T15:08:06.637Z,100465.13
2023-05-15T15:10:38.008Z,100436.13
2023-05-15T15:13:10.246Z,100466.41
2023-05-15T15:15:40.393Z,100476.13
2023-05-15T15:18:10.227Z,100456.66
2023-05-15T15:20:40.160Z,100476.69
2023-05-15T15:23:12.596Z,100497.09
2023-05-15T15:25:42.385Z,100472.25
2023-05-15T15:28:12.408Z,100480.25
2023-05-15T15:30:42.255Z,100465.28
2023-05-15T15:33:11.988Z,100479.31
2023-05-15T15:35:41.733Z,100449.13
2023-05-15T15:38:14.321Z,100469.50
2023-05-15T15:40:44.143Z,100468.88
2023-05-15T15:43:13.858Z,100469.06
2023-05-15T15:45:43.686Z,100471.16
2023-05-15T15:48:13.524Z,100463.69
2023-05-15T15:50:43.367Z,100456.00
2023-05-15T15:53:15.699Z,100465.41
2023-05-15T15:55:47.118Z,100460.31
2023-05-15T15:58:19.839Z,100462.16
2023-05-15T16:00:49.719Z,100472.28
2023-05-15T16:03:19.632Z,100478.78
2023-05-15T16:05:49.476Z,100493.50
2023-05-15T16:08:21.780Z,100470.59
2023-05-15T16:10:51.552Z,100487.00
2023-05-15T16:13:21.291Z,100481.91
2023-05-15T16:15:51.112Z,100479.25
2023-05-15T16:18:20.904Z,100486.16
2023-05-15T16:20:51.112Z,100466.41
2023-05-15T16:23:23.467Z,100482.44
2023-05-15T16:25:53.169Z,100490.19
2023-05-15T16:28:22.948Z,100484.22
2023-05-15T16:30:53.969Z,100480.06
2023-05-15T16:33:24.108Z,100467.09
2023-05-15T16:35:53.883Z,100496.81
2023-05-15T16:38:26.775Z,100496.28
2023-05-15T16:40:56.484Z,100504.44
2023-05-15T16:43:26.286Z,100504.78
2023-05-15T16:45:56.077Z,100516.34
2023-05-15T16:48:26.445Z,100453.25
2023-05-15T16:50:56.550Z,100497.56
2023-05-15T16:53:29.460Z,100504.19
2023-05-15T16:55:59.217Z,100478.41
2023-05-15T16:58:28.956Z,100454.94
2023-05-15T17:00:58.795Z,100505.59
2023-05-15T17:03:28.625Z,100513.28
2023-05-15T17:05:58.457Z,100502.25
2023-05-15T17:08:30.785Z,100511.47
2023-05-15T17:11:00.632Z,100514.88
2023-05-15T17:13:30.426Z,100512.28
2023-05-15T17:16:00.290Z,100513.91
2023-05-15T17:18:30.161Z,100511.41
2023-05-15T17:20:59.933Z,100495.84
2023-05-15T17:23:32.263Z,100479.69
2023-05-15T17:26:02.049Z,100522.53
2023-05-15T17:28:31.803Z,100520.28
2023-05-15T17:31:02.122Z,100474.59
2023-05-15T17:33:32.359Z,100521.72
2023-05-15T17:36:02.126Z,100504.78
2023-05-15T17:38:34.466Z,100491.41
2023-05-15T17:41:04.211Z,100525.81
2023-05-15T17:43:33.951Z,100513.19
2023-05-15T17:46:05.824Z,100538.06
2023-05-15T17:48:35.992Z,100509.06
2023-05-15T17:51:05.851Z,100544.97
2023-05-15T17:53:38.228Z,100513.41
2023-05-15T17:56:08.388Z,100554.41
2023-05-15T17:58:38.255Z,100554.34
2023-05-15T18:01:08.286Z,100553.53
2023-05-15T18:03:39.659Z,100564.03
2023-05-15T18:06:13.615Z,100536.09
2023-05-15T18:08:47.681Z,100573.00
2023-05-15T18:11:22.464Z,100570.63
2023-05-15T18:13:52.725Z,100587.06
2023-05-15T18:16:22.546Z,100575.19
2023-05-15T18:18:52.415Z,100582.94
2023-05-15T18:21:22.880Z,100596.75
2023-05-15T18:23:55.182Z,100588.22
2023-05-15T18:26:25.909Z,100601.19
2023-05-15T18:28:56.547Z,100590.28
2023-05-15T18:31:26.313Z,100586.84
2023-05-15T18:33:56.483Z,100581.81
2023-05-15T18:36:26.324Z,100607.66
2023-05-15T18:38:58.656Z,100626.53
2023-05-15T18:41:28.645Z,100630.91
2023-05-15T18:43:58.407Z,100638.59
2023-05-15T18:46:28.687Z,100642.06
2023-05-15T18:48:58.526Z,100643.09
2023-05-15T18:51:28.503Z,100649.50
2023-05-15T18:54:00.947Z,100655.94
2023-05-15T18:56:30.747Z,100662.19
2023-05-15T18:59:00.515Z,100662.19
2023-05-15T19:01:30.371Z,100646.09
2023-05-15T19:04:00.177Z,100650.59
2023-05-15T19:06:29.896Z,100672.03
2023-05-15T19:09:02.673Z,100672.09
2023-05-15T19:11:32.455Z,100683.25
2023-05-15T19:14:02.382Z,100662.75
2023-05-15T19:16:33.167Z,100691.97
2023-05-15T19:19:03.053Z,100691.09
2023-05-15T19:21:32.838Z,100697.94
2023-05-15T19:24:05.166Z,100685.13
2023-05-15T19:26:35.171Z,100698.88
2023-05-15T19:29:04.892Z,100703.19
2023-05-15T19:31:34.680Z,100714.31
2023-05-15T19:34:04.514Z,100720.38
2023-05-15T19:36:34.286Z,100716.94
2023-05-15T19:39:06.852Z,100694.66
2023-05-15T19:41:36.686Z,100731.53
2023-05-15T19:44:08.363Z,100730.63
2023-05-15T19:46:38.275Z,100738.34
2023-05-15T19:49:08.779Z,100740.88
2023-05-15T19:51:41.181Z,100739.16
2023-05-15T19:54:13.497Z,100748.59
2023-05-15T19:56:43.246Z,100737.41
2023-05-15T19:59:13.174Z,100725.31
2023-05-15T20:01:42.914Z,100753.66
2023-05-15T20:04:13.739Z,100769.03
2023-05-15T20:06:43.472Z,100756.09
2023-05-15T20:09:15.819Z,100702.91
2023-05-15T20:11:45.548Z,100764.63
2023-05-15T20:14:17.603Z,100770.56
2023-05-15T20:16:47.552Z,100786.69
2023-05-15T20:19:21.575Z,100773.75
2023-05-15T20:21:51.422Z,100797.78
2023-05-15T20:24:25.973Z,100803.88
2023-05-15T20:26:55.776Z,100800.44
2023-05-15T20:29:25.868Z,100784.00
2023-05-15T20:31:55.771Z,100808.72
2023-05-15T20:34:25.634Z,100811.34
2023-05-15T20:36:56.418Z,100803.63
2023-05-15T20:39:28.790Z,100780.47
2023-05-15T20:41:58.648Z,100824.28
2023-05-15T20:44:29.738Z,100819.06
2023-05-15T20:46:59.454Z,100828.56
2023-05-15T20:49:29.293Z,100814.81
2023-05-15T20:51:59.061Z,100818.97
2023-05-15T20:54:31.484Z,100843.94
2023-05-15T20:57:01.219Z,100831.91
2023-05-15T20:59:31.177Z,100815.22
2023-05-15T21:02:00.945Z,100850.88
2023-05-15T21:04:31.799Z,100850.53
2023-05-15T21:07:01.623Z,100836.47
2023-05-15T21:09:33.981Z,100855.50
2023-05-15T21:12:04.219Z,100859.69
2023-05-15T21:14:34.013Z,100844.94
2023-05-15T21:17:03.980Z,100844.06
2023-05-15T21:19:33.772Z,100857.66
2023-05-15T21:22:03.539Z,100867.94
2023-05-15T21:24:35.959Z,100849.78
2023-05-15T21:27:06.095Z,100871.38
2023-05-15T21:29:35.917Z,100874.06
2023-05-15T21:32:06.412Z,100869.84
2023-05-15T21:34:36.160Z,100869.19
2023-05-15T21:37:05.895Z,100870.09
2023-05-15T21:39:38.199Z,100870.25
2023-05-15T21:42:08.567Z,100866.94
2023-05-15T21:44:38.267Z,100857.50
2023-05-15T21:47:08.142Z,100869.63
2023-05-15T21:49:37.915Z,100862.78
2023-05-15T21:52:07.888Z,100810.19
2023-05-15T21:54:40.240Z,100872.16
2023-05-15T21:57:09.982Z,100872.19
2023-05-15T21:59:39.817Z,100874.75
2023-05-15T22:02:10.102Z,100863.63
2023-05-15T22:04:40.037Z,100868.66
2023-05-15T22:07:10.002Z,100855.59
2023-05-15T22:09:42.393Z,100869.34
2023-05-15T22:12:12.304Z,100865.94
2023-05-15T22:14:54.378Z,100871.81
2023-05-15T22:17:28.800Z,100869.06
2023-05-15T22:20:08.194Z,100869.59
2023-05-15T22:22:38.652Z,100873.78
2023-05-15T22:25:12.113Z,100870.38
2023-05-15T22:27:41.997Z,100860.06
2023-05-15T22:30:12.576Z,100876.28
2023-05-15T22:32:42.561Z,100880.53
2023-05-15T22:35:13.391Z,100873.78
2023-05-15T22:37:45.492Z,100886.72
2023-05-15T22:40:18.220Z,100884.25
2023-05-15T22:42:50.330Z,100874.81
2023-05-15T22:45:20.526Z,100902.41
2023-05-15T22:47:51.315Z,100905.03
2023-05-15T22:50:21.135Z,100897.41
2023-05-15T22:52:51.372Z,100892.09
2023-05-15T22:55:23.793Z,100899.84
2023-05-15T22:57:53.558Z,100872.06
2023-05-15T23:00:23.551Z,100898.75
2023-05-15T23:02:55.417Z,100896.78
2023-05-15T23:05:25.931Z,100907.94
2023-05-15T23:07:55.968Z,100914.72
2023-05-15T23:10:28.696Z,100917.97
2023-05-15T23:12:58.716Z,100909.44
2023-05-15T23:15:28.672Z,100896.56
2023-05-15T23:17:58.553Z,100909.66
2023-05-15T23:20:28.524Z,100895.97
2023-05-15T23:22:58.585Z,100911.31
2023-05-15T23:25:31.159Z,100914.97
2023-05-15T23:28:00.907Z,100910.03
2023-05-15T23:30:30.978Z,100891.94
2023-05-15T23:33:00.896Z,100900.63
2023-05-15T23:35:30.825Z,100916.00
2023-05-15T23:38:00.600Z,100919.41
2023-05-15T23:40:32.921Z,100909.94
2023-05-15T23:43:02.718Z,100916.06
2023-05-15T23:45:32.628Z,100922.19
2023-05-15T23:48:02.587Z,100913.59
2023-05-15T23:50:32.359Z,100924.06
2023-05-15T23:53:02.595Z,100925.78
2023-05-15T23:55:35.151Z,100904.16
2023-05-15T23:58:05.011Z,100919.63
